sensor_id;sensor_type;location;lat;lon;timestamp;pressure;altitude;pressure_sealevel;temperature;humidity
5651;BME280;40241;52.684;9.758;2024-02-04T00:01:25;101732.91;;;7.63;65.62
5651;BME280;40241;52.684;9.758;2024-02-04T00:03:50;101720.06;;;7.60;65.68
5651;BME280;40241;52.684;9.758;2024-02-04T00:06:15;101724.06;;;7.59;65.85
5651;BME280;40241;52.684;9.758;2024-02-04T00:08:41;101724.06;;;7.59;65.74
5651;BME280;40241;52.684;9.758;2024-02-04T00:11:06;101734.03;;;7.57;65.51
5651;BME280;40241;52.684;9.758;2024-02-04T00:13:33;101732.19;;;7.54;65.70
5651;BME280;40241;52.684;9.758;2024-02-04T00:15:59;101721.66;;;7.52;65.80
5651;BME280;40241;52.684;9.758;2024-02-04T00:18:24;101713.84;;;7.51;65.66
5651;BME280;40241;52.684;9.758;2024-02-04T00:20:50;101715.28;;;7.46;65.53
5651;BME280;40241;52.684;9.758;2024-02-04T00:23:15;101704.44;;;7.43;65.60
5651;BME280;40241;52.684;9.758;2024-02-04T00:25:41;101703.84;;;7.39;65.72
5651;BME280;40241;52.684;9.758;2024-02-04T00:28:07;101707.06;;;7.37;65.80
5651;BME280;40241;52.684;9.758;2024-02-04T00:30:32;101712.72;;;7.34;65.83
5651;BME280;40241;52.684;9.758;2024-02-04T00:32:57;101695.47;;;7.33;65.97
5651;BME280;40241;52.684;9.758;2024-02-04T00:35:28;101686.75;;;7.35;65.92
5651;BME280;40241;52.684;9.758;2024-02-04T00:37:53;101679.25;;;7.35;66.02
5651;BME280;40241;52.684;9.758;2024-02-04T00:40:18;101678.97;;;7.33;65.89
5651;BME280;40241;52.684;9.758;2024-02-04T00:42:44;101680.94;;;7.33;65.78
5651;BME280;40241;52.684;9.758;2024-02-04T00:45:10;101675.16;;;7.31;65.77
5651;BME280;40241;52.684;9.758;2024-02-04T00:47:35;101673.63;;;7.30;65.98
5651;BME280;40241;52.684;9.758;2024-02-04T00:50:01;101661.09;;;7.29;65.90
5651;BME280;40241;52.684;9.758;2024-02-04T00:52:26;101657.56;;;7.28;65.79
5651;BME280;40241;52.684;9.758;2024-02-04T00:54:51;101661.09;;;7.29;65.74
5651;BME280;40241;52.684;9.758;2024-02-04T00:57:17;101660.03;;;7.26;65.49
5651;BME280;40241;52.684;9.758;2024-02-04T00:59:42;101664.97;;;7.22;65.63
5651;BME280;40241;52.684;9.758;2024-02-04T01:02:07;101668.63;;;7.19;65.80
5651;BME280;40241;52.684;9.758;2024-02-04T01:04:32;101674.63;;;7.18;65.76
5651;BME280;40241;52.684;9.758;2024-02-04T01:06:58;101667.59;;;7.17;65.86
5651;BME280;40241;52.684;9.758;2024-02-04T01:09:23;101667.28;;;7.15;65.75
5651;BME280;40241;52.684;9.758;2024-02-04T01:11:48;101671.28;;;7.14;65.77
5651;BME280;40241;52.684;9.758;2024-02-04T01:14:14;101672.03;;;7.14;65.68
5651;BME280;40241;52.684;9.758;2024-02-04T01:16:39;101678.78;;;7.13;65.92
5651;BME280;40241;52.684;9.758;2024-02-04T01:19:04;101679.22;;;7.12;65.88
5651;BME280;40241;52.684;9.758;2024-02-04T01:21:30;101665.78;;;7.14;65.93
5651;BME280;40241;52.684;9.758;2024-02-04T01:23:55;101653.25;;;7.13;65.80
5651;BME280;40241;52.684;9.758;2024-02-04T01:26:20;101668.97;;;7.12;65.95
5651;BME280;40241;52.684;9.758;2024-02-04T01:28:46;101667.47;;;7.11;65.85
5651;BME280;40241;52.684;9.758;2024-02-04T01:31:11;101671.91;;;7.09;65.99
5651;BME280;40241;52.684;9.758;2024-02-04T01:33:37;101664.88;;;7.07;66.11
5651;BME280;40241;52.684;9.758;2024-02-04T01:36:02;101669.66;;;7.07;66.06
5651;BME280;40241;52.684;9.758;2024-02-04T01:38:28;101670.38;;;7.07;66.09
5651;BME280;40241;52.684;9.758;2024-02-04T01:40:53;101668.09;;;7.06;66.07
5651;BME280;40241;52.684;9.758;2024-02-04T01:43:19;101675.16;;;7.07;66.11
5651;BME280;40241;52.684;9.758;2024-02-04T01:45:47;101681.38;;;7.07;66.12
5651;BME280;40241;52.684;9.758;2024-02-04T01:48:12;101691.66;;;7.07;66.20
5651;BME280;40241;52.684;9.758;2024-02-04T01:50:41;101688.44;;;7.09;66.16
5651;BME280;40241;52.684;9.758;2024-02-04T01:53:06;101677.91;;;7.07;66.12
5651;BME280;40241;52.684;9.758;2024-02-04T01:55:32;101668.88;;;7.07;66.08
5651;BME280;40241;52.684;9.758;2024-02-04T01:57:58;101680.31;;;7.05;66.28
5651;BME280;40241;52.684;9.758;2024-02-04T02:00:23;101657.88;;;7.07;66.21
5651;BME280;40241;52.684;9.758;2024-02-04T02:02:49;101646.56;;;7.04;66.24
5651;BME280;40241;52.684;9.758;2024-02-04T02:05:14;101660.03;;;7.02;66.24
5651;BME280;40241;52.684;9.758;2024-02-04T02:07:40;101667.03;;;7.03;66.23
5651;BME280;40241;52.684;9.758;2024-02-04T02:10:06;101661.84;;;7.05;66.22
5651;BME280;40241;52.684;9.758;2024-02-04T02:12:49;101659.56;;;7.04;66.30
5651;BME280;40241;52.684;9.758;2024-02-04T02:15:21;101659.75;;;7.00;66.07
5651;BME280;40241;52.684;9.758;2024-02-04T02:17:52;101656.66;;;6.98;66.16
5651;BME280;40241;52.684;9.758;2024-02-04T02:20:23;101653.63;;;6.96;66.00
5651;BME280;40241;52.684;9.758;2024-02-04T02:22:57;101645.84;;;6.95;66.13
5651;BME280;40241;52.684;9.758;2024-02-04T02:25:29;101631.31;;;6.94;66.06
5651;BME280;40241;52.684;9.758;2024-02-04T02:27:55;101628.75;;;6.91;66.02
5651;BME280;40241;52.684;9.758;2024-02-04T02:30:21;101616.97;;;6.90;66.19
5651;BME280;40241;52.684;9.758;2024-02-04T02:32:48;101616.22;;;6.90;66.08
5651;BME280;40241;52.684;9.758;2024-02-04T02:35:18;101619.44;;;6.88;66.31
5651;BME280;40241;52.684;9.758;2024-02-04T02:40:29;101632.44;;;6.88;66.25
5651;BME280;40241;52.684;9.758;2024-02-04T02:42:55;101608.63;;;6.85;66.37
5651;BME280;40241;52.684;9.758;2024-02-04T02:45:22;101638.88;;;6.85;66.34
5651;BME280;40241;52.684;9.758;2024-02-04T02:47:51;101626.81;;;6.82;66.29
5651;BME280;40241;52.684;9.758;2024-02-04T02:50:16;101625.00;;;6.79;66.33
5651;BME280;40241;52.684;9.758;2024-02-04T02:52:42;101624.22;;;6.79;66.38
5651;BME280;40241;52.684;9.758;2024-02-04T02:55:07;101627.44;;;6.77;66.37
5651;BME280;40241;52.684;9.758;2024-02-04T02:57:33;101627.44;;;6.77;66.40
5651;BME280;40241;52.684;9.758;2024-02-04T02:59:58;101628.22;;;6.78;66.27
5651;BME280;40241;52.684;9.758;2024-02-04T03:02:23;101625.94;;;6.76;66.30
5651;BME280;40241;52.684;9.758;2024-02-04T03:04:49;101617.06;;;6.72;66.38
5651;BME280;40241;52.684;9.758;2024-02-04T03:07:14;101617.38;;;6.74;66.46
5651;BME280;40241;52.684;9.758;2024-02-04T03:09:39;101625.94;;;6.76;66.38
5651;BME280;40241;52.684;9.758;2024-02-04T03:12:05;101626.09;;;6.73;66.42
5651;BME280;40241;52.684;9.758;2024-02-04T03:14:30;101612.63;;;6.75;66.56
5651;BME280;40241;52.684;9.758;2024-02-04T03:16:56;101606.38;;;6.74;66.68
5651;BME280;40241;52.684;9.758;2024-02-04T03:19:21;101603.31;;;6.72;66.72
5651;BME280;40241;52.684;9.758;2024-02-04T03:21:47;101595.06;;;6.72;66.45
5651;BME280;40241;52.684;9.758;2024-02-04T03:24:12;101586.81;;;6.72;66.53
5651;BME280;40241;52.684;9.758;2024-02-04T03:26:38;101592.31;;;6.72;66.45
5651;BME280;40241;52.684;9.758;2024-02-04T03:29:03;101592.03;;;6.70;66.51
5651;BME280;40241;52.684;9.758;2024-02-04T03:31:30;101583.78;;;6.70;66.44
5651;BME280;40241;52.684;9.758;2024-02-04T03:33:56;101589.28;;;6.70;66.35
5651;BME280;40241;52.684;9.758;2024-02-04T03:36:22;101604.28;;;6.69;66.42
5651;BME280;40241;52.684;9.758;2024-02-04T03:38:49;101598.94;;;6.66;66.39
5651;BME280;40241;52.684;9.758;2024-02-04T03:41:14;101595.44;;;6.65;66.38
5651;BME280;40241;52.684;9.758;2024-02-04T03:43:40;101593.59;;;6.62;66.44
5651;BME280;40241;52.684;9.758;2024-02-04T03:46:05;101587.34;;;6.62;66.46
5651;BME280;40241;52.684;9.758;2024-02-04T03:48:30;101580.63;;;6.63;66.44
5651;BME280;40241;52.684;9.758;2024-02-04T03:50:56;101579.53;;;6.60;66.40
5651;BME280;40241;52.684;9.758;2024-02-04T03:53:21;101580.75;;;6.59;66.45
5651;BME280;40241;52.684;9.758;2024-02-04T03:55:49;101567.00;;;6.59;66.45
5651;BME280;40241;52.684;9.758;2024-02-04T03:58:14;101558.47;;;6.57;66.60
5651;BME280;40241;52.684;9.758;2024-02-04T04:00:39;101574.97;;;6.57;66.50
5651;BME280;40241;52.684;9.758;2024-02-04T04:03:05;101580.00;;;6.59;66.63
5651;BME280;40241;52.684;9.758;2024-02-04T04:05:30;101576.19;;;6.56;66.65
5651;BME280;40241;52.684;9.758;2024-02-04T04:07:55;101562.47;;;6.56;66.52
5651;BME280;40241;52.684;9.758;2024-02-04T04:10:21;101566.72;;;6.57;66.60
5651;BME280;40241;52.684;9.758;2024-02-04T04:12:46;101576.78;;;6.60;66.47
5651;BME280;40241;52.684;9.758;2024-02-04T04:15:12;101563.03;;;6.60;66.36
5651;BME280;40241;52.684;9.758;2024-02-04T04:17:37;101568.25;;;6.58;66.47
5651;BME280;40241;52.684;9.758;2024-02-04T04:20:04;101573.47;;;6.56;66.33
5651;BME280;40241;52.684;9.758;2024-02-04T04:22:30;101574.97;;;6.57;66.50
5651;BME280;40241;52.684;9.758;2024-02-04T04:24:55;101578.94;;;6.56;66.47
5651;BME280;40241;52.684;9.758;2024-02-04T04:27:20;101585.38;;;6.53;66.59
5651;BME280;40241;52.684;9.758;2024-02-04T04:29:45;101581.13;;;6.52;66.52
5651;BME280;40241;52.684;9.758;2024-02-04T04:32:11;101581.41;;;6.54;66.51
5651;BME280;40241;52.684;9.758;2024-02-04T04:34:36;101580.16;;;6.55;66.51
5651;BME280;40241;52.684;9.758;2024-02-04T04:37:01;101581.69;;;6.56;66.46
5651;BME280;40241;52.684;9.758;2024-02-04T04:39:27;101596.66;;;6.55;66.38
5651;BME280;40241;52.684;9.758;2024-02-04T04:41:52;101612.72;;;6.57;66.45
5651;BME280;40241;52.684;9.758;2024-02-04T04:44:17;101604.00;;;6.58;66.35
5651;BME280;40241;52.684;9.758;2024-02-04T04:46:43;101616.19;;;6.57;66.45
5651;BME280;40241;52.684;9.758;2024-02-04T04:49:09;101622.94;;;6.56;66.20
5651;BME280;40241;52.684;9.758;2024-02-04T04:51:34;101605.69;;;6.56;66.26
5651;BME280;40241;52.684;9.758;2024-02-04T04:54:00;101595.44;;;6.56;66.34
5651;BME280;40241;52.684;9.758;2024-02-04T04:56:25;101590.41;;;6.55;66.36
5651;BME280;40241;52.684;9.758;2024-02-04T04:58:50;101575.91;;;6.54;66.31
5651;BME280;40241;52.684;9.758;2024-02-04T05:01:16;101592.84;;;6.53;66.27
5651;BME280;40241;52.684;9.758;2024-02-04T05:03:42;101591.16;;;6.55;66.14
5651;BME280;40241;52.684;9.758;2024-02-04T05:06:07;101593.31;;;6.51;66.19
5651;BME280;40241;52.684;9.758;2024-02-04T05:08:32;101593.31;;;6.51;66.23
5651;BME280;40241;52.684;9.758;2024-02-04T05:10:58;101590.88;;;6.53;66.17
5651;BME280;40241;52.684;9.758;2024-02-04T05:13:23;101589.38;;;6.52;66.04
5651;BME280;40241;52.684;9.758;2024-02-04T05:15:48;101583.88;;;6.52;65.83
5651;BME280;40241;52.684;9.758;2024-02-04T05:18:14;101585.56;;;6.50;66.04
5651;BME280;40241;52.684;9.758;2024-02-04T05:20:39;101591.19;;;6.46;66.00
5651;BME280;40241;52.684;9.758;2024-02-04T05:23:04;101601.28;;;6.49;66.00
5651;BME280;40241;52.684;9.758;2024-02-04T05:25:30;101582.81;;;6.50;65.82
5651;BME280;40241;52.684;9.758;2024-02-04T05:27:55;101577.75;;;6.48;65.77
5651;BME280;40241;52.684;9.758;2024-02-04T05:30:21;101568.75;;;6.48;65.75
5651;BME280;40241;52.684;9.758;2024-02-04T05:32:46;101566.75;;;6.48;65.79
5651;BME280;40241;52.684;9.758;2024-02-04T05:35:11;101577.47;;;6.46;65.79
5651;BME280;40241;52.684;9.758;2024-02-04T05:37:37;101575.19;;;6.45;65.70
5651;BME280;40241;52.684;9.758;2024-02-04T05:40:03;101571.66;;;6.44;65.58
5651;BME280;40241;52.684;9.758;2024-02-04T05:42:29;101573.19;;;6.45;65.68
5651;BME280;40241;52.684;9.758;2024-02-04T05:44:56;101576.25;;;6.47;65.67
5651;BME280;40241;52.684;9.758;2024-02-04T05:47:22;101581.25;;;6.49;65.45
5651;BME280;40241;52.684;9.758;2024-02-04T05:49:47;101575.31;;;6.50;65.57
5651;BME280;40241;52.684;9.758;2024-02-04T05:52:12;101556.81;;;6.51;65.31
5651;BME280;40241;52.684;9.758;2024-02-04T05:54:38;101550.88;;;6.52;65.40
5651;BME280;40241;52.684;9.758;2024-02-04T05:57:06;101555.59;;;6.52;65.34
5651;BME280;40241;52.684;9.758;2024-02-04T05:59:34;101555.91;;;6.54;65.33
5651;BME280;40241;52.684;9.758;2024-02-04T06:01:59;101551.16;;;6.54;65.25
5651;BME280;40241;52.684;9.758;2024-02-04T06:04:25;101556.97;;;6.56;65.24
5651;BME280;40241;52.684;9.758;2024-02-04T06:06:50;101550.50;;;6.59;65.07
5651;BME280;40241;52.684;9.758;2024-02-04T06:09:15;101552.03;;;6.60;65.02
5651;BME280;40241;52.684;9.758;2024-02-04T06:11:44;101545.78;;;6.60;65.04
5651;BME280;40241;52.684;9.758;2024-02-04T06:14:10;101541.84;;;6.61;64.89
5651;BME280;40241;52.684;9.758;2024-02-04T06:16:35;101547.34;;;6.61;64.95
5651;BME280;40241;52.684;9.758;2024-02-04T06:19:00;101534.00;;;6.59;65.00
5651;BME280;40241;52.684;9.758;2024-02-04T06:21:26;101531.59;;;6.61;64.85
5651;BME280;40241;52.684;9.758;2024-02-04T06:23:51;101534.66;;;6.63;64.88
5651;BME280;40241;52.684;9.758;2024-02-04T06:26:16;101537.41;;;6.63;64.83
5651;BME280;40241;52.684;9.758;2024-02-04T06:28:41;101532.19;;;6.65;64.67
5651;BME280;40241;52.684;9.758;2024-02-04T06:31:11;101537.69;;;6.65;64.78
5651;BME280;40241;52.684;9.758;2024-02-04T06:33:36;101520.25;;;6.68;64.70
5651;BME280;40241;52.684;9.758;2024-02-04T06:36:01;101518.25;;;6.69;64.70
5651;BME280;40241;52.684;9.758;2024-02-04T06:38:27;101512.75;;;6.69;64.57
5651;BME280;40241;52.684;9.758;2024-02-04T06:40:52;101505.28;;;6.69;64.63
5651;BME280;40241;52.684;9.758;2024-02-04T06:43:17;101513.81;;;6.71;64.48
5651;BME280;40241;52.684;9.758;2024-02-04T06:45:43;101529.06;;;6.72;64.52
5651;BME280;40241;52.684;9.758;2024-02-04T06:48:08;101512.56;;;6.72;64.62
5651;BME280;40241;52.684;9.758;2024-02-04T06:50:35;101500.84;;;6.72;64.48
5651;BME280;40241;52.684;9.758;2024-02-04T06:53:00;101501.56;;;6.72;64.54
5651;BME280;40241;52.684;9.758;2024-02-04T06:55:25;101500.84;;;6.72;64.71
5651;BME280;40241;52.684;9.758;2024-02-04T06:57:51;101507.56;;;6.71;64.46
5651;BME280;40241;52.684;9.758;2024-02-04T07:00:16;101508.78;;;6.70;64.42
5651;BME280;40241;52.684;9.758;2024-02-04T07:02:42;101505.72;;;6.68;64.31
5651;BME280;40241;52.684;9.758;2024-02-04T07:05:07;101506.97;;;6.67;64.53
5651;BME280;40241;52.684;9.758;2024-02-04T07:07:33;101513.25;;;6.67;64.46
5651;BME280;40241;52.684;9.758;2024-02-04T07:09:59;101495.97;;;6.67;64.41
5651;BME280;40241;52.684;9.758;2024-02-04T07:12:24;101491.81;;;6.71;64.46
5651;BME280;40241;52.684;9.758;2024-02-04T07:14:49;101493.31;;;6.72;64.55
5651;BME280;40241;52.684;9.758;2024-02-04T07:17:15;101490.41;;;6.76;64.41
5651;BME280;40241;52.684;9.758;2024-02-04T07:19:40;101486.41;;;6.77;64.38
5651;BME280;40241;52.684;9.758;2024-02-04T07:22:06;101482.31;;;6.72;64.37
5651;BME280;40241;52.684;9.758;2024-02-04T07:24:31;101471.16;;;6.76;64.51
5651;BME280;40241;52.684;9.758;2024-02-04T07:26:57;101484.44;;;6.77;64.68
5651;BME280;40241;52.684;9.758;2024-02-04T07:29:22;101485.50;;;6.80;64.57
5651;BME280;40241;52.684;9.758;2024-02-04T07:31:47;101490.50;;;6.81;64.62
5651;BME280;40241;52.684;9.758;2024-02-04T07:34:12;101491.28;;;6.82;64.39
5651;BME280;40241;52.684;9.758;2024-02-04T07:36:38;101495.84;;;6.85;64.47
5651;BME280;40241;52.684;9.758;2024-02-04T07:39:03;101496.59;;;6.85;64.42
5651;BME280;40241;52.684;9.758;2024-02-04T07:41:30;101480.84;;;6.86;64.50
5651;BME280;40241;52.684;9.758;2024-02-04T07:43:56;101492.63;;;6.86;64.45
5651;BME280;40241;52.684;9.758;2024-02-04T07:46:21;101486.94;;;6.90;64.26
5651;BME280;40241;52.684;9.758;2024-02-04T07:48:47;101492.28;;;6.93;64.29
5651;BME280;40241;52.684;9.758;2024-02-04T07:51:12;101478.03;;;6.95;64.29
5651;BME280;40241;52.684;9.758;2024-02-04T07:53:38;101493.03;;;6.94;64.17
5651;BME280;40241;52.684;9.758;2024-02-04T07:56:03;101490.56;;;6.96;64.03
5651;BME280;40241;52.684;9.758;2024-02-04T07:58:31;101477.84;;;6.98;63.89
5651;BME280;40241;52.684;9.758;2024-02-04T08:00:57;101490.38;;;6.99;63.95
5651;BME280;40241;52.684;9.758;2024-02-04T08:03:22;101477.69;;;7.02;63.85
5651;BME280;40241;52.684;9.758;2024-02-04T08:05:47;101479.78;;;7.07;63.81
5651;BME280;40241;52.684;9.758;2024-02-04T08:08:13;101488.78;;;7.07;63.69
5651;BME280;40241;52.684;9.758;2024-02-04T08:10:38;101491.38;;;7.11;63.71
5651;BME280;40241;52.684;9.758;2024-02-04T08:13:03;101492.41;;;7.14;63.70
5651;BME280;40241;52.684;9.758;2024-02-04T08:15:29;101470.69;;;7.16;63.61
5651;BME280;40241;52.684;9.758;2024-02-04T08:17:54;101487.00;;;7.19;63.61
5651;BME280;40241;52.684;9.758;2024-02-04T08:20:20;101478.53;;;7.23;63.46
5651;BME280;40241;52.684;9.758;2024-02-04T08:22:46;101458.06;;;7.24;63.35
5651;BME280;40241;52.684;9.758;2024-02-04T08:25:11;101461.38;;;7.28;63.30
5651;BME280;40241;52.684;9.758;2024-02-04T08:27:37;101469.75;;;7.33;63.17
5651;BME280;40241;52.684;9.758;2024-02-04T08:30:03;101463.78;;;7.35;63.23
5651;BME280;40241;52.684;9.758;2024-02-04T08:32:30;101464.06;;;7.37;63.42
5651;BME280;40241;52.684;9.758;2024-02-04T08:34:55;101468.91;;;7.42;63.22
5651;BME280;40241;52.684;9.758;2024-02-04T08:37:21;101477.72;;;7.46;63.17
5651;BME280;40241;52.684;9.758;2024-02-04T08:39:46;101484.09;;;7.52;63.11
5651;BME280;40241;52.684;9.758;2024-02-04T08:42:11;101492.63;;;7.54;63.04
5651;BME280;40241;52.684;9.758;2024-02-04T08:44:37;101491.84;;;7.53;62.86
5651;BME280;40241;52.684;9.758;2024-02-04T08:47:02;101497.38;;;7.53;62.75
5651;BME280;40241;52.684;9.758;2024-02-04T08:49:29;101498.63;;;7.52;62.65
5651;BME280;40241;52.684;9.758;2024-02-04T08:51:54;101504.88;;;7.53;62.84
5651;BME280;40241;52.684;9.758;2024-02-04T08:54:20;101509.63;;;7.52;62.96
5651;BME280;40241;52.684;9.758;2024-02-04T08:56:45;101503.94;;;7.56;63.01
5651;BME280;40241;52.684;9.758;2024-02-04T08:59:10;101504.97;;;7.58;62.74
5651;BME280;40241;52.684;9.758;2024-02-04T09:01:36;101498.53;;;7.61;62.73
5651;BME280;40241;52.684;9.758;2024-02-04T09:04:01;101500.78;;;7.63;62.61
5651;BME280;40241;52.684;9.758;2024-02-04T09:06:26;101502.78;;;7.62;62.68
5651;BME280;40241;52.684;9.758;2024-02-04T09:08:52;101509.63;;;7.67;62.51
5651;BME280;40241;52.684;9.758;2024-02-04T09:11:18;101490.63;;;7.69;62.49
5651;BME280;40241;52.684;9.758;2024-02-04T09:13:45;101492.16;;;7.70;62.47
5651;BME280;40241;52.684;9.758;2024-02-04T09:16:11;101497.47;;;7.73;62.54
5651;BME280;40241;52.684;9.758;2024-02-04T09:18:36;101474.94;;;7.75;62.31
5651;BME280;40241;52.684;9.758;2024-02-04T09:21:02;101482.25;;;7.78;62.23
5651;BME280;40241;52.684;9.758;2024-02-04T09:23:28;101486.25;;;7.77;62.20
5651;BME280;40241;52.684;9.758;2024-02-04T09:25:53;101476.00;;;7.77;62.10
5651;BME280;40241;52.684;9.758;2024-02-04T09:28:18;101467.72;;;7.77;62.06
5651;BME280;40241;52.684;9.758;2024-02-04T09:30:44;101472.47;;;7.77;62.19
5651;BME280;40241;52.684;9.758;2024-02-04T09:33:09;101462.97;;;7.78;61.98
5651;BME280;40241;52.684;9.758;2024-02-04T09:35:34;101451.97;;;7.78;61.99
5651;BME280;40241;52.684;9.758;2024-02-04T09:38:00;101463.94;;;7.75;61.92
5651;BME280;40241;52.684;9.758;2024-02-04T09:40:25;101462.41;;;7.74;62.06
5651;BME280;40241;52.684;9.758;2024-02-04T09:42:51;101472.78;;;7.79;61.89
5651;BME280;40241;52.684;9.758;2024-02-04T09:45:17;101464.78;;;7.81;62.00
5651;BME280;40241;52.684;9.758;2024-02-04T09:47:45;101455.28;;;7.82;61.71
5651;BME280;40241;52.684;9.758;2024-02-04T09:50:10;101457.84;;;7.86;61.87
5651;BME280;40241;52.684;9.758;2024-02-04T09:52:39;101472.38;;;7.86;61.50
5651;BME280;40241;52.684;9.758;2024-02-04T09:55:05;101481.13;;;7.85;61.75
5651;BME280;40241;52.684;9.758;2024-02-04T09:57:34;101480.06;;;7.82;61.40
5651;BME280;40241;52.684;9.758;2024-02-04T10:00:04;101495.09;;;7.81;61.57
5651;BME280;40241;52.684;9.758;2024-02-04T10:02:30;101480.56;;;7.80;61.40
5651;BME280;40241;52.684;9.758;2024-02-04T10:04:57;101494.13;;;7.84;61.53
5651;BME280;40241;52.684;9.758;2024-02-04T10:07:22;101488.81;;;7.80;61.30
5651;BME280;40241;52.684;9.758;2024-02-04T10:09:49;101473.50;;;7.79;61.54
5651;BME280;40241;52.684;9.758;2024-02-04T10:12:15;101487.78;;;7.78;61.28
5651;BME280;40241;52.684;9.758;2024-02-04T10:14:40;101469.53;;;7.80;61.60
5651;BME280;40241;52.684;9.758;2024-02-04T10:17:06;101473.91;;;7.87;61.35
5651;BME280;40241;52.684;9.758;2024-02-04T10:19:32;101472.91;;;7.90;61.33
5651;BME280;40241;52.684;9.758;2024-02-04T10:21:58;101471.41;;;7.89;61.28
5651;BME280;40241;52.684;9.758;2024-02-04T10:24:24;101472.66;;;7.88;61.38
5651;BME280;40241;52.684;9.758;2024-02-04T10:26:50;101462.38;;;7.89;61.13
5651;BME280;40241;52.684;9.758;2024-02-04T10:29:15;101466.47;;;7.93;61.45
5651;BME280;40241;52.684;9.758;2024-02-04T10:31:40;101465.09;;;8.03;61.44
5651;BME280;40241;52.684;9.758;2024-02-04T10:34:06;101462.06;;;8.16;61.26
5651;BME280;40241;52.684;9.758;2024-02-04T10:36:33;101468.69;;;8.24;61.32
5651;BME280;40241;52.684;9.758;2024-02-04T10:38:58;101463.28;;;8.29;61.19
5651;BME280;40241;52.684;9.758;2024-02-04T10:41:25;101469.63;;;8.35;61.13
5651;BME280;40241;52.684;9.758;2024-02-04T10:43:52;101468.19;;;8.40;60.72
5651;BME280;40241;52.684;9.758;2024-02-04T10:46:19;101448.59;;;8.38;60.83
5651;BME280;40241;52.684;9.758;2024-02-04T10:48:59;101443.38;;;8.40;60.32
5651;BME280;40241;52.684;9.758;2024-02-04T10:51:26;101428.81;;;8.39;60.65
5651;BME280;40241;52.684;9.758;2024-02-04T10:53:54;101434.13;;;8.43;60.81
5651;BME280;40241;52.684;9.758;2024-02-04T10:56:32;101427.91;;;8.48;60.61
5651;BME280;40241;52.684;9.758;2024-02-04T10:58:58;101431.50;;;8.54;60.82
5651;BME280;40241;52.684;9.758;2024-02-04T11:01:25;101437.63;;;8.64;60.78
5651;BME280;40241;52.684;9.758;2024-02-04T11:03:52;101441.47;;;8.72;60.57
5651;BME280;40241;52.684;9.758;2024-02-04T11:06:22;101430.72;;;8.74;60.41
5651;BME280;40241;52.684;9.758;2024-02-04T11:08:50;101428.78;;;8.80;60.25
5651;BME280;40241;52.684;9.758;2024-02-04T11:11:16;101437.63;;;8.84;60.52
5651;BME280;40241;52.684;9.758;2024-02-04T11:13:43;101429.13;;;8.87;60.08
5651;BME280;40241;52.684;9.758;2024-02-04T11:25:12;101423.88;;;8.89;58.90
5651;BME280;40241;52.684;9.758;2024-02-04T11:27:43;101426.91;;;8.91;60.20
5651;BME280;40241;52.684;9.758;2024-02-04T11:30:09;101425.22;;;8.99;59.97
5651;BME280;40241;52.684;9.758;2024-02-04T11:32:35;101423.75;;;9.04;60.01
5651;BME280;40241;52.684;9.758;2024-02-04T11:35:01;101422.56;;;9.10;59.76
5651;BME280;40241;52.684;9.758;2024-02-04T11:37:28;101416.34;;;9.15;59.67
5651;BME280;40241;52.684;9.758;2024-02-04T11:39:54;101431.88;;;9.13;59.60
5651;BME280;40241;52.684;9.758;2024-02-04T11:42:23;101430.84;;;9.10;59.56
5651;BME280;40241;52.684;9.758;2024-02-04T11:44:49;101433.88;;;9.12;59.56
5651;BME280;40241;52.684;9.758;2024-02-04T11:47:25;101425.81;;;9.09;58.64
5651;BME280;40241;52.684;9.758;2024-02-04T11:49:58;101425.13;;;9.14;58.96
5651;BME280;40241;52.684;9.758;2024-02-04T11:52:26;101420.03;;;9.07;59.26
5651;BME280;40241;52.684;9.758;2024-02-04T11:54:52;101417.28;;;9.07;59.34
5651;BME280;40241;52.684;9.758;2024-02-04T11:57:17;101424.53;;;9.04;59.28
5651;BME280;40241;52.684;9.758;2024-02-04T11:59:43;101433.31;;;9.03;59.71
5651;BME280;40241;52.684;9.758;2024-02-04T12:02:10;101424.53;;;9.04;59.46
5651;BME280;40241;52.684;9.758;2024-02-04T12:04:37;101438.06;;;9.02;59.48
5651;BME280;40241;52.684;9.758;2024-02-04T12:07:05;101406.41;;;8.98;59.28
5651;BME280;40241;52.684;9.758;2024-02-04T12:09:30;101422.97;;;8.98;59.48
5651;BME280;40241;52.684;9.758;2024-02-04T12:11:57;101417.16;;;8.96;59.26
5651;BME280;40241;52.684;9.758;2024-02-04T12:14:22;101414.13;;;8.94;59.56
5651;BME280;40241;52.684;9.758;2024-02-04T12:16:48;101408.63;;;8.94;59.62
5651;BME280;40241;52.684;9.758;2024-02-04T12:19:13;101397.59;;;8.94;59.51
5651;BME280;40241;52.684;9.758;2024-02-04T12:21:39;101398.88;;;8.98;59.67
5651;BME280;40241;52.684;9.758;2024-02-04T12:24:04;101396.16;;;9.04;59.43
5651;BME280;40241;52.684;9.758;2024-02-04T12:26:30;101394.69;;;9.08;59.42
5651;BME280;40241;52.684;9.758;2024-02-04T12:28:56;101394.75;;;9.14;59.28
5651;BME280;40241;52.684;9.758;2024-02-04T12:31:25;101400.81;;;9.18;59.19
5651;BME280;40241;52.684;9.758;2024-02-04T12:34:00;101399.84;;;9.21;58.58
5651;BME280;40241;52.684;9.758;2024-02-04T12:36:27;101405.38;;;9.21;59.11
5651;BME280;40241;52.684;9.758;2024-02-04T12:38:54;101407.41;;;9.26;59.04
5651;BME280;40241;52.684;9.758;2024-02-04T12:41:20;101406.97;;;9.33;58.90
5651;BME280;40241;52.684;9.758;2024-02-04T12:43:52;101397.47;;;9.34;58.63
5651;BME280;40241;52.684;9.758;2024-02-04T12:46:18;101395.91;;;9.27;58.61
5651;BME280;40241;52.684;9.758;2024-02-04T12:48:44;101396.88;;;9.24;58.74
5651;BME280;40241;52.684;9.758;2024-02-04T12:51:09;101398.59;;;9.22;58.85
5651;BME280;40241;52.684;9.758;2024-02-04T12:53:37;101398.09;;;9.23;59.00
5651;BME280;40241;52.684;9.758;2024-02-04T12:56:02;101397.13;;;9.26;58.83
5651;BME280;40241;52.684;9.758;2024-02-04T12:58:27;101397.91;;;9.27;58.82
5651;BME280;40241;52.684;9.758;2024-02-04T13:01:02;101384.84;;;9.27;58.15
5651;BME280;40241;52.684;9.758;2024-02-04T13:03:28;101391.06;;;9.22;58.71
5651;BME280;40241;52.684;9.758;2024-02-04T13:06:00;101381.78;;;9.25;58.58
5651;BME280;40241;52.684;9.758;2024-02-04T13:08:26;101386.84;;;9.27;58.71
5651;BME280;40241;52.684;9.758;2024-02-04T13:10:55;101371.31;;;9.29;58.73
5651;BME280;40241;52.684;9.758;2024-02-04T13:13:23;101370.28;;;9.27;58.56
5651;BME280;40241;52.684;9.758;2024-02-04T13:15:54;101361.47;;;9.23;58.67